createdAt,value
2022-08-03T00:00:38.855Z,48.04
2022-08-03T00:01:38.882Z,48.04
2022-08-03T00:02:38.936Z,48.14
2022-08-03T00:03:38.892Z,48.14
2022-08-03T00:04:38.922Z,48.24
2022-08-03T00:05:38.904Z,48.24
2022-08-03T00:06:38.931Z,48.24
2022-08-03T00:07:38.973Z,48.24
2022-08-03T00:08:40.370Z,48.24
2022-08-03T00:09:39.030Z,48.24
2022-08-03T00:10:38.997Z,48.14
2022-08-03T00:11:39.021Z,48.24
2022-08-03T00:12:39.010Z,48.14
2022-08-03T00:13:39.019Z,47.94
2022-08-03T00:14:39.047Z,47.84
2022-08-03T00:15:39.033Z,47.74
2022-08-03T00:16:39.055Z,47.74
2022-08-03T00:17:52.960Z,47.74
2022-08-03T00:18:39.087Z,47.64
2022-08-03T00:19:39.132Z,47.62
2022-08-03T00:20:39.106Z,47.42
2022-08-03T00:21:39.147Z,47.42
2022-08-03T00:22:39.166Z,47.32
2022-08-03T00:23:51.871Z,47.32
2022-08-03T00:24:39.221Z,47.13
2022-08-03T00:25:39.202Z,47.13
2022-08-03T00:26:39.221Z,47.13
2022-08-03T00:27:39.255Z,47.13
2022-08-03T00:28:39.276Z,47.13
2022-08-03T00:29:57.604Z,47.25
2022-08-03T00:30:39.343Z,47.25
2022-08-03T00:31:51.428Z,47.34
2022-08-03T00:32:45.196Z,47.34
2022-08-03T00:33:59.322Z,47.34
2022-08-03T00:34:57.400Z,47.44
2022-08-03T00:35:50.433Z,47.44
2022-08-03T00:36:39.465Z,47.54
2022-08-03T00:37:41.194Z,47.64
2022-08-03T00:38:39.517Z,47.64
2022-08-03T00:39:39.540Z,47.64
2022-08-03T00:40:39.577Z,47.64
2022-08-03T00:41:39.562Z,47.74
2022-08-03T00:42:39.590Z,47.74
2022-08-03T00:43:39.609Z,47.74
2022-08-03T00:44:39.618Z,47.84
2022-08-03T00:45:39.645Z,47.74
2022-08-03T00:46:39.640Z,47.74
2022-08-03T00:47:39.654Z,47.74
2022-08-03T00:48:39.658Z,47.74
2022-08-03T00:49:39.747Z,47.74
2022-08-03T00:50:39.711Z,47.64
2022-08-03T00:51:39.688Z,47.64
2022-08-03T00:52:39.698Z,47.64
2022-08-03T00:53:39.698Z,47.64
2022-08-03T00:54:39.669Z,47.64
2022-08-03T00:55:39.914Z,47.64
2022-08-03T00:56:39.714Z,47.74
2022-08-03T00:57:39.730Z,47.74
2022-08-03T00:58:39.751Z,47.84
2022-08-03T00:59:39.775Z,47.96
2022-08-03T01:00:39.793Z,48.07
2022-08-03T01:01:39.903Z,48.07
2022-08-03T01:02:39.813Z,48.07
2022-08-03T01:03:39.805Z,48.16
2022-08-03T01:04:39.804Z,48.26
2022-08-03T01:05:39.843Z,48.26
2022-08-03T01:06:39.832Z,48.36
2022-08-03T01:07:39.849Z,48.46
2022-08-03T01:08:39.880Z,48.46
2022-08-03T01:09:39.887Z,48.56
2022-08-03T01:10:39.920Z,48.56
2022-08-03T01:12:01.115Z,48.68
2022-08-03T01:12:39.961Z,48.68
2022-08-03T01:14:03.997Z,48.68
2022-08-03T01:14:40.003Z,48.68
2022-08-03T01:15:40.011Z,48.79
2022-08-03T01:16:40.015Z,48.79
2022-08-03T01:17:40.017Z,48.79
2022-08-03T01:18:40.019Z,48.79
2022-08-03T01:19:40.049Z,48.88
2022-08-03T01:20:40.075Z,48.88
2022-08-03T01:21:40.103Z,48.88
2022-08-03T01:22:40.121Z,48.88
2022-08-03T01:23:40.125Z,48.88
2022-08-03T01:24:40.892Z,48.98
2022-08-03T01:25:40.195Z,48.98
2022-08-03T01:26:40.235Z,49.08
2022-08-03T01:27:40.230Z,49.08
2022-08-03T01:28:40.261Z,49.08
2022-08-03T01:29:40.288Z,49.08
2022-08-03T01:30:40.309Z,49.08
2022-08-03T01:32:52.531Z,49.08
2022-08-03T01:32:53.304Z,49.21
2022-08-03T01:33:40.356Z,49.21
2022-08-03T01:34:40.360Z,49.21
2022-08-03T01:35:40.402Z,49.21
2022-08-03T01:36:40.394Z,49.10
2022-08-03T01:37:40.413Z,49.21
2022-08-03T01:38:40.396Z,49.21
2022-08-03T01:39:40.440Z,49.21
2022-08-03T01:40:40.456Z,49.30
2022-08-03T01:41:40.446Z,49.30
2022-08-03T01:42:40.470Z,49.30
2022-08-03T01:44:26.680Z,49.30
2022-08-03T01:44:40.515Z,49.30
2022-08-03T01:45:40.563Z,49.30
2022-08-03T01:46:40.601Z,49.30
2022-08-03T01:47:40.604Z,49.30
2022-08-03T01:48:40.630Z,49.30
2022-08-03T01:49:40.785Z,49.30
2022-08-03T01:50:40.671Z,49.30
2022-08-03T01:51:56.156Z,49.21
2022-08-03T01:52:40.743Z,49.21
2022-08-03T01:53:40.708Z,49.21
2022-08-03T01:54:40.730Z,49.30
2022-08-03T01:55:40.752Z,49.21
2022-08-03T01:56:40.781Z,49.30
2022-08-03T01:58:06.199Z,49.30
2022-08-03T01:58:40.823Z,49.30
2022-08-03T01:59:40.856Z,49.21
2022-08-03T02:00:40.937Z,49.21
2022-08-03T02:02:15.227Z,49.21
2022-08-03T02:02:41.398Z,49.21
2022-08-03T02:03:59.779Z,49.21
2022-08-03T02:04:40.906Z,49.10
2022-08-03T02:05:40.947Z,49.10
2022-08-03T02:07:01.772Z,49.10
2022-08-03T02:07:40.999Z,49.10
2022-08-03T02:08:41.013Z,49.01
2022-08-03T02:09:41.041Z,49.01
2022-08-03T02:10:41.075Z,49.10
2022-08-03T02:11:41.096Z,49.10
2022-08-03T02:12:41.105Z,49.10
2022-08-03T02:13:41.124Z,49.10
2022-08-03T02:14:41.139Z,49.10
2022-08-03T02:15:41.168Z,49.21
2022-08-03T02:16:41.244Z,49.30
2022-08-03T02:17:41.218Z,49.30
2022-08-03T02:18:41.237Z,49.40
2022-08-03T02:19:41.250Z,49.51
2022-08-03T02:20:41.272Z,49.53
2022-08-03T02:21:56.949Z,49.60
2022-08-03T02:22:41.329Z,49.63
2022-08-03T02:23:41.333Z,49.63
2022-08-03T02:24:41.575Z,49.60
2022-08-03T02:25:41.342Z,49.51
2022-08-03T02:26:41.373Z,49.51
2022-08-03T02:27:43.673Z,49.51
2022-08-03T02:28:41.429Z,49.60
2022-08-03T02:29:41.392Z,49.60
2022-08-03T02:30:41.415Z,49.51
2022-08-03T02:31:41.444Z,49.60
2022-08-03T02:32:41.468Z,49.60
2022-08-03T02:33:41.479Z,49.60
2022-08-03T02:34:41.497Z,49.70
2022-08-03T02:35:41.535Z,49.60
2022-08-03T02:36:41.561Z,49.60
2022-08-03T02:37:42.644Z,49.60
2022-08-03T02:38:41.580Z,49.60
2022-08-03T02:39:41.599Z,49.60
2022-08-03T02:40:41.627Z,49.70
2022-08-03T02:41:41.644Z,49.70
2022-08-03T02:42:41.685Z,49.80
2022-08-03T02:44:05.495Z,49.80
2022-08-03T02:44:41.687Z,49.70
2022-08-03T02:45:45.336Z,49.70
2022-08-03T02:46:41.714Z,49.70
2022-08-03T02:47:54.147Z,49.83
2022-08-03T02:48:41.772Z,49.83
2022-08-03T02:49:51.379Z,49.83
2022-08-03T02:50:41.758Z,49.83
2022-08-03T02:51:41.776Z,49.80
2022-08-03T02:52:41.800Z,49.83
2022-08-03T02:53:41.811Z,49.93
2022-08-03T02:54:41.824Z,49.93
2022-08-03T02:55:43.112Z,50.02
2022-08-03T02:56:41.893Z,50.02
2022-08-03T02:57:41.931Z,50.13
2022-08-03T02:58:41.918Z,50.02
2022-08-03T02:59:41.942Z,49.93
2022-08-03T03:00:41.984Z,49.83
2022-08-03T03:01:41.985Z,49.93
2022-08-03T03:02:43.933Z,49.93
2022-08-03T03:03:44.670Z,49.93
2022-08-03T03:05:50.824Z,50.02
2022-08-03T03:05:55.339Z,50.13
2022-08-03T03:06:42.035Z,50.13
2022-08-03T03:07:49.799Z,50.02
2022-08-03T03:08:42.042Z,50.02
2022-08-03T03:09:43.235Z,50.02
2022-08-03T03:10:42.107Z,50.02
2022-08-03T03:11:42.118Z,50.02
2022-08-03T03:12:42.148Z,50.13
2022-08-03T03:13:42.156Z,49.93
2022-08-03T03:14:42.180Z,49.93
2022-08-03T03:15:42.166Z,49.93
2022-08-03T03:16:42.170Z,50.02
2022-08-03T03:17:42.230Z,49.93
2022-08-03T03:18:42.207Z,50.02
2022-08-03T03:19:42.243Z,50.02
2022-08-03T03:20:42.258Z,50.02
2022-08-03T03:21:42.270Z,50.02
2022-08-03T03:22:43.535Z,50.02
2022-08-03T03:23:42.294Z,49.93
2022-08-03T03:24:42.321Z,49.93
2022-08-03T03:25:42.360Z,49.93
2022-08-03T03:26:42.583Z,49.93
2022-08-03T03:27:42.619Z,49.93
2022-08-03T03:28:42.433Z,49.93
2022-08-03T03:29:42.452Z,50.02
2022-08-03T03:30:42.478Z,49.93
2022-08-03T03:31:42.500Z,50.02
2022-08-03T03:32:42.517Z,50.02
2022-08-03T03:33:42.531Z,50.13
2022-08-03T03:34:42.558Z,50.23
2022-08-03T03:35:42.573Z,50.13
2022-08-03T03:36:42.590Z,50.13
2022-08-03T03:37:42.589Z,50.13
2022-08-03T03:38:42.634Z,50.13
2022-08-03T03:39:42.824Z,50.13
2022-08-03T03:40:42.591Z,50.23
2022-08-03T03:41:42.617Z,50.13
2022-08-03T03:42:42.644Z,50.23
2022-08-03T03:43:42.662Z,50.23
2022-08-03T03:44:42.676Z,50.32
2022-08-03T03:45:42.692Z,50.35
2022-08-03T03:46:42.715Z,50.35
2022-08-03T03:47:42.742Z,50.45
2022-08-03T03:48:42.769Z,50.65
2022-08-03T03:49:42.784Z,50.55
2022-08-03T03:50:42.801Z,50.55
2022-08-03T03:51:42.809Z,50.65
2022-08-03T03:52:42.824Z,50.55
2022-08-03T03:53:42.811Z,50.65
2022-08-03T03:54:42.816Z,50.65
2022-08-03T03:56:01.862Z,50.65
2022-08-03T03:56:42.826Z,50.74
2022-08-03T03:57:42.841Z,50.87
2022-08-03T03:58:42.848Z,50.97
2022-08-03T03:59:42.846Z,51.07
2022-08-03T04:00:42.872Z,51.17
2022-08-03T04:01:42.853Z,51.17
2022-08-03T04:02:42.877Z,51.07
2022-08-03T04:03:42.844Z,50.97
2022-08-03T04:04:42.840Z,51.07
2022-08-03T04:05:45.890Z,51.17
2022-08-03T04:06:42.871Z,51.17
2022-08-03T04:07:42.895Z,51.17
2022-08-03T04:08:42.916Z,51.17
2022-08-03T04:09:42.931Z,51.17
2022-08-03T04:10:42.938Z,51.17
2022-08-03T04:11:42.932Z,51.17
2022-08-03T04:12:50.184Z,51.07
2022-08-03T04:13:42.981Z,51.07
2022-08-03T04:14:43.013Z,51.07
2022-08-03T04:15:42.994Z,51.07
2022-08-03T04:16:43.925Z,51.17
2022-08-03T04:17:43.046Z,51.17
2022-08-03T04:18:43.108Z,51.07
2022-08-03T04:19:43.082Z,51.17
2022-08-03T04:20:43.063Z,51.17
2022-08-03T04:21:43.095Z,51.17
2022-08-03T04:22:43.110Z,51.17
2022-08-03T04:23:43.138Z,51.27
2022-08-03T04:24:43.178Z,51.27
2022-08-03T04:25:43.160Z,51.27
2022-08-03T04:26:43.167Z,51.17
2022-08-03T04:27:43.196Z,51.17
2022-08-03T04:28:43.218Z,51.17
2022-08-03T04:29:46.422Z,51.27
2022-08-03T04:30:43.247Z,51.37
2022-08-03T04:31:43.254Z,51.37
2022-08-03T04:32:45.971Z,51.37
2022-08-03T04:33:43.282Z,51.37
2022-08-03T04:34:43.273Z,51.37
2022-08-03T04:36:01.257Z,51.47
2022-08-03T04:36:43.318Z,51.47
2022-08-03T04:37:43.349Z,51.47
2022-08-03T04:38:43.371Z,51.47
2022-08-03T04:39:43.381Z,51.47
2022-08-03T04:40:43.406Z,51.47
2022-08-03T04:42:04.675Z,51.37
2022-08-03T04:42:43.429Z,51.37
2022-08-03T04:43:43.447Z,51.37
2022-08-03T04:44:43.424Z,51.37
2022-08-03T04:45:43.447Z,51.37
2022-08-03T04:46:46.743Z,51.37
2022-08-03T04:47:43.499Z,51.37
2022-08-03T04:48:44.874Z,51.37
2022-08-03T04:49:43.608Z,51.37
2022-08-03T04:50:43.529Z,51.27
2022-08-03T04:51:43.562Z,51.27
2022-08-03T04:52:43.529Z,51.27
2022-08-03T04:53:43.534Z,51.27
2022-08-03T04:54:50.075Z,51.37
2022-08-03T04:55:43.581Z,51.27
2022-08-03T04:56:43.600Z,51.15
2022-08-03T04:57:43.614Z,51.15
2022-08-03T04:58:43.638Z,51.27
2022-08-03T04:59:43.648Z,51.27
2022-08-03T05:02:09.782Z,51.27
2022-08-03T05:03:20.119Z,51.27
2022-08-03T05:04:09.641Z,51.37
2022-08-03T05:05:09.675Z,51.37
2022-08-03T05:06:11.633Z,51.47
2022-08-03T05:07:11.756Z,51.47
2022-08-03T05:08:11.039Z,51.37
2022-08-03T05:09:09.735Z,51.37
2022-08-03T05:10:15.911Z,51.37
2022-08-03T05:11:09.763Z,51.37
2022-08-03T05:12:09.851Z,51.25
2022-08-03T05:13:09.756Z,51.35
2022-08-03T05:14:09.757Z,51.35
2022-08-03T05:15:09.758Z,51.25
2022-08-03T05:16:09.782Z,51.25
2022-08-03T05:17:09.815Z,51.15
2022-08-03T05:18:13.992Z,51.15
2022-08-03T05:19:09.850Z,51.25
2022-08-03T05:20:09.875Z,51.25
2022-08-03T05:21:09.887Z,51.25
2022-08-03T05:22:09.958Z,51.15
2022-08-03T05:23:09.905Z,50.95
2022-08-03T05:24:09.942Z,51.05
2022-08-03T05:25:09.924Z,51.05
2022-08-03T05:26:09.946Z,51.05
2022-08-03T05:27:09.966Z,51.05
2022-08-03T05:28:09.972Z,51.05
2022-08-03T05:29:10.013Z,51.15
2022-08-03T05:30:29.627Z,51.05
2022-08-03T05:31:10.005Z,51.05
2022-08-03T05:32:10.047Z,51.05
2022-08-03T05:33:10.033Z,51.05
2022-08-03T05:34:10.076Z,51.05
2022-08-03T05:35:55.843Z,51.15
2022-08-03T05:36:10.096Z,51.15
2022-08-03T05:37:10.115Z,51.05
2022-08-03T05:38:10.152Z,51.05
2022-08-03T05:39:10.182Z,51.05
2022-08-03T05:40:10.171Z,51.15
2022-08-03T05:41:21.785Z,51.05
2022-08-03T05:42:10.293Z,51.05
2022-08-03T05:43:10.205Z,50.92
2022-08-03T05:44:10.226Z,50.92
2022-08-03T05:45:10.243Z,50.82
2022-08-03T05:46:12.150Z,50.82
2022-08-03T05:47:10.305Z,50.82
2022-08-03T05:48:10.264Z,50.82
2022-08-03T05:49:10.361Z,50.73
2022-08-03T05:50:10.292Z,50.73
2022-08-03T05:51:10.319Z,50.73
2022-08-03T05:52:14.473Z,50.62
2022-08-03T05:53:10.366Z,50.73
2022-08-03T05:54:10.347Z,50.73
2022-08-03T05:55:10.374Z,50.82
2022-08-03T05:56:15.278Z,50.95
2022-08-03T05:57:10.420Z,50.95
2022-08-03T05:58:10.456Z,50.82
2022-08-03T05:59:35.891Z,50.73
2022-08-03T06:00:10.473Z,50.62
2022-08-03T06:01:10.535Z,50.62
2022-08-03T06:02:10.623Z,50.62
2022-08-03T06:03:10.486Z,50.62
2022-08-03T06:04:10.501Z,50.52
2022-08-03T06:05:10.518Z,50.32
2022-08-03T06:06:10.519Z,50.23
2022-08-03T06:07:10.516Z,50.20
2022-08-03T06:08:10.540Z,50.30
2022-08-03T06:09:10.566Z,50.30
2022-08-03T06:10:36.584Z,50.20
2022-08-03T06:11:10.562Z,50.20
2022-08-03T06:12:14.072Z,50.20
2022-08-03T06:13:10.594Z,50.20
2022-08-03T06:14:10.582Z,50.10
2022-08-03T06:15:11.409Z,50.10
2022-08-03T06:16:10.583Z,50.00
2022-08-03T06:17:10.598Z,49.90
2022-08-03T06:18:10.613Z,49.90
2022-08-03T06:19:10.642Z,50.00
2022-08-03T06:20:10.613Z,50.10
2022-08-03T06:21:15.243Z,49.90
2022-08-03T06:22:10.643Z,50.00
2022-08-03T06:23:15.907Z,49.90
2022-08-03T06:24:10.684Z,49.80
2022-08-03T06:25:12.996Z,49.80
2022-08-03T06:26:11.184Z,49.90
2022-08-03T06:27:10.691Z,49.90
2022-08-03T06:28:18.932Z,49.90
2022-08-03T06:29:10.723Z,49.70
2022-08-03T06:30:10.722Z,49.58
2022-08-03T06:31:10.751Z,49.58
2022-08-03T06:32:10.815Z,49.48
2022-08-03T06:33:10.731Z,49.48
2022-08-03T06:34:34.145Z,49.38
2022-08-03T06:35:10.779Z,49.28
2022-08-03T06:36:10.827Z,49.28
2022-08-03T06:37:10.826Z,49.18
2022-08-03T06:38:10.854Z,49.18
2022-08-03T06:39:10.882Z,49.18
2022-08-03T06:40:10.892Z,49.18
2022-08-03T06:41:10.944Z,49.08
2022-08-03T06:42:10.982Z,49.08
2022-08-03T06:43:12.677Z,48.98
2022-08-03T06:44:10.923Z,48.96
2022-08-03T06:45:10.920Z,48.76
2022-08-03T06:46:10.969Z,48.76
2022-08-03T06:47:10.959Z,48.76
2022-08-03T06:48:10.985Z,48.66
2022-08-03T06:49:11.131Z,48.66
2022-08-03T06:50:16.136Z,48.56
2022-08-03T06:51:11.045Z,48.46
2022-08-03T06:52:11.026Z,48.16
2022-08-03T06:53:19.698Z,48.07
2022-08-03T06:54:11.079Z,47.96
2022-08-03T06:55:11.075Z,47.96
2022-08-03T06:56:11.077Z,47.96
2022-08-03T06:57:11.106Z,47.96
2022-08-03T06:58:11.142Z,47.84
2022-08-03T07:00:09.402Z,47.74
2022-08-03T07:00:12.398Z,47.64
2022-08-03T07:01:11.310Z,47.54
2022-08-03T07:02:11.204Z,47.44
2022-08-03T07:03:11.228Z,47.34
2022-08-03T07:04:11.268Z,47.44
2022-08-03T07:05:11.236Z,47.34
2022-08-03T07:06:11.249Z,47.34
2022-08-03T07:07:11.277Z,47.25
2022-08-03T07:08:11.294Z,47.14
2022-08-03T07:09:11.348Z,47.05
2022-08-03T07:10:11.330Z,47.14
2022-08-03T07:11:11.333Z,47.14
2022-08-03T07:12:11.374Z,47.14
2022-08-03T07:13:11.356Z,46.95
2022-08-03T07:14:11.353Z,46.95
2022-08-03T07:15:20.410Z,46.92
2022-08-03T07:16:11.407Z,46.92
2022-08-03T07:17:11.709Z,46.92
2022-08-03T07:18:11.451Z,46.83
2022-08-03T07:19:11.487Z,46.72
2022-08-03T07:20:11.526Z,46.72
2022-08-03T07:21:11.493Z,46.62
2022-08-03T07:22:11.518Z,46.53
2022-08-03T07:23:19.053Z,46.53
2022-08-03T07:24:11.563Z,46.53
2022-08-03T07:25:11.595Z,46.42
2022-08-03T07:26:11.579Z,46.41
2022-08-03T07:27:11.621Z,46.42
2022-08-03T07:28:11.648Z,46.42
2022-08-03T07:29:14.915Z,46.41
2022-08-03T07:30:11.654Z,46.31
2022-08-03T07:31:11.672Z,46.31
2022-08-03T07:32:11.652Z,46.20
2022-08-03T07:33:11.656Z,46.20
2022-08-03T07:34:11.683Z,46.20
2022-08-03T07:35:24.944Z,46.20
2022-08-03T07:36:11.722Z,46.20
2022-08-03T07:37:11.738Z,46.20
2022-08-03T07:38:11.757Z,46.11
2022-08-03T07:39:16.706Z,46.01
2022-08-03T07:40:11.799Z,46.01
2022-08-03T07:41:11.826Z,46.01
2022-08-03T07:42:11.843Z,46.01
2022-08-03T07:43:11.880Z,46.01
2022-08-03T07:44:11.865Z,45.90
2022-08-03T07:45:16.574Z,45.68
2022-08-03T07:46:11.862Z,45.59
2022-08-03T07:47:22.322Z,45.59
2022-08-03T07:48:12.704Z,45.49
2022-08-03T07:49:11.975Z,45.49
2022-08-03T07:50:11.873Z,45.49
2022-08-03T07:51:11.897Z,45.49
2022-08-03T07:52:11.902Z,45.39
2022-08-03T07:53:11.916Z,45.39
2022-08-03T07:54:11.960Z,45.39
2022-08-03T07:55:11.981Z,45.39
2022-08-03T07:56:12.007Z,45.39
2022-08-03T07:57:12.034Z,45.29
2022-08-03T07:58:12.032Z,45.19
2022-08-03T07:59:12.063Z,45.19
2022-08-03T08:00:12.078Z,45.17
2022-08-03T08:01:12.209Z,44.97
2022-08-03T08:02:12.093Z,45.07
2022-08-03T08:03:12.104Z,45.07
2022-08-03T08:04:12.154Z,45.07
2022-08-03T08:05:12.125Z,44.97
2022-08-03T08:06:12.146Z,44.97
2022-08-03T08:07:12.159Z,44.97
2022-08-03T08:08:12.168Z,45.17
2022-08-03T08:09:12.187Z,45.07
2022-08-03T08:10:12.218Z,44.97
2022-08-03T08:11:12.216Z,44.87
2022-08-03T08:12:15.178Z,44.87
2022-08-03T08:13:12.202Z,44.87
2022-08-03T08:14:12.222Z,44.87
2022-08-03T08:15:12.234Z,44.87
2022-08-03T08:16:12.254Z,44.95
2022-08-03T08:17:12.240Z,44.75
2022-08-03T08:18:12.222Z,44.75
2022-08-03T08:19:12.772Z,44.75
2022-08-03T08:20:12.253Z,44.75
2022-08-03T08:21:12.291Z,44.75
2022-08-03T08:22:12.306Z,44.75
2022-08-03T08:23:36.234Z,44.85
2022-08-03T08:24:15.249Z,44.75
2022-08-03T08:25:12.333Z,44.95
2022-08-03T08:26:12.353Z,44.65
2022-08-03T08:27:12.379Z,44.55
2022-08-03T08:28:29.705Z,44.55
2022-08-03T08:29:12.408Z,44.55
2022-08-03T08:30:15.974Z,44.45
2022-08-03T08:31:12.438Z,44.43
2022-08-03T08:32:12.515Z,44.43
2022-08-03T08:33:22.137Z,44.43
2022-08-03T08:34:12.519Z,44.33
2022-08-03T08:35:12.518Z,44.33
2022-08-03T08:36:15.371Z,44.43
2022-08-03T08:37:12.569Z,44.33
2022-08-03T08:38:12.596Z,44.33
2022-08-03T08:39:12.612Z,44.33
2022-08-03T08:40:12.617Z,44.33
2022-08-03T08:41:12.654Z,44.33
2022-08-03T08:42:12.757Z,44.43
2022-08-03T08:43:12.708Z,44.23
2022-08-03T08:44:12.726Z,44.23
2022-08-03T08:45:12.727Z,44.23
2022-08-03T08:46:12.762Z,44.13
2022-08-03T08:47:12.769Z,44.21
2022-08-03T08:48:12.802Z,44.11
2022-08-03T08:49:12.907Z,44.11
2022-08-03T08:50:15.544Z,44.41
2022-08-03T08:51:12.870Z,44.21
2022-08-03T08:52:25.181Z,44.01
2022-08-03T08:53:18.181Z,44.11
2022-08-03T08:54:12.932Z,44.11
2022-08-03T08:55:12.962Z,44.11
2022-08-03T08:56:12.959Z,44.11
2022-08-03T08:57:33.600Z,44.41
2022-08-03T08:58:13.018Z,44.41
2022-08-03T08:59:13.040Z,44.11
2022-08-03T09:00:13.068Z,44.21
2022-08-03T09:01:13.151Z,44.11
2022-08-03T09:02:13.167Z,44.41
2022-08-03T09:03:13.164Z,44.21
2022-08-03T09:04:13.145Z,43.91
2022-08-03T09:05:13.167Z,43.82
2022-08-03T09:06:13.175Z,44.19
2022-08-03T09:07:19.977Z,43.89
2022-08-03T09:08:13.199Z,43.89
2022-08-03T09:09:28.510Z,43.99
2022-08-03T09:10:13.809Z,43.89
2022-08-03T09:11:13.246Z,43.79
2022-08-03T09:12:37.566Z,44.09
2022-08-03T09:13:13.280Z,43.79
2022-08-03T09:14:39.473Z,43.99
2022-08-03T09:15:17.215Z,43.89
2022-08-03T09:16:13.286Z,44.19
2022-08-03T09:17:17.355Z,43.79
2022-08-03T09:18:13.459Z,44.19
2022-08-03T09:19:13.301Z,43.70
2022-08-03T09:20:13.317Z,43.99
2022-08-03T09:21:30.094Z,43.89
2022-08-03T09:22:13.362Z,43.77
2022-08-03T09:23:51.812Z,43.97
2022-08-03T09:24:31.181Z,43.77
2022-08-03T09:25:24.331Z,43.97
2022-08-03T09:26:13.432Z,43.87
2022-08-03T09:27:13.487Z,44.07
2022-08-03T09:28:13.462Z,43.77
2022-08-03T09:29:15.278Z,43.77
2022-08-03T09:30:32.492Z,43.67
2022-08-03T09:31:13.482Z,43.67
2022-08-03T09:32:14.920Z,43.67
2022-08-03T09:33:13.546Z,43.67
2022-08-03T09:34:13.570Z,43.67
2022-08-03T09:35:13.588Z,43.87
2022-08-03T09:36:13.615Z,43.67
2022-08-03T09:37:13.745Z,43.67
2022-08-03T09:38:14.424Z,44.07
2022-08-03T09:39:13.680Z,43.67
2022-08-03T09:40:13.697Z,43.67
2022-08-03T09:41:13.719Z,43.65
2022-08-03T09:42:14.720Z,43.65
2022-08-03T09:43:13.785Z,43.65
2022-08-03T09:44:24.211Z,43.55
2022-08-03T09:45:13.785Z,43.95
2022-08-03T09:46:13.785Z,43.65
2022-08-03T09:47:13.803Z,43.75
2022-08-03T09:48:13.825Z,43.55
2022-08-03T09:49:13.933Z,43.55
2022-08-03T09:50:13.975Z,43.55
2022-08-03T09:51:32.829Z,43.55
2022-08-03T09:52:32.367Z,43.55
2022-08-03T09:53:13.941Z,43.55
2022-08-03T09:54:20.386Z,43.55
2022-08-03T09:56:30.945Z,43.46
2022-08-03T09:56:35.585Z,43.46
2022-08-03T09:57:14.096Z,43.55
2022-08-03T09:58:14.048Z,43.46
2022-08-03T09:59:14.069Z,43.46
2022-08-03T10:00:14.084Z,43.93
2022-08-03T10:01:23.935Z,43.43
2022-08-03T10:02:14.100Z,43.43
2022-08-03T10:03:14.083Z,43.43
2022-08-03T10:04:14.092Z,43.53
2022-08-03T10:05:19.403Z,43.33
2022-08-03T10:06:14.111Z,43.43
2022-08-03T10:07:14.126Z,43.43
2022-08-03T10:08:14.138Z,43.43
2022-08-03T10:09:14.165Z,43.63
2022-08-03T10:10:30.549Z,43.43
2022-08-03T10:11:14.264Z,43.33
2022-08-03T10:12:14.226Z,43.33
2022-08-03T10:13:14.231Z,43.24
2022-08-03T10:14:14.230Z,43.33
2022-08-03T10:16:22.594Z,43.33
2022-08-03T10:16:23.486Z,43.33
2022-08-03T10:17:14.302Z,43.24
2022-08-03T10:18:14.334Z,43.33
2022-08-03T10:19:14.315Z,43.33
2022-08-03T10:20:14.288Z,43.24
2022-08-03T10:21:14.305Z,43.31
2022-08-03T10:22:14.323Z,43.21
2022-08-03T10:23:14.351Z,43.12
2022-08-03T10:24:14.368Z,43.12
2022-08-03T10:25:14.358Z,43.21
2022-08-03T10:26:14.376Z,43.21
2022-08-03T10:27:14.382Z,43.12
2022-08-03T10:28:14.400Z,43.51
2022-08-03T10:29:14.436Z,43.12
2022-08-03T10:30:14.424Z,43.12
2022-08-03T10:31:14.510Z,43.02
2022-08-03T10:32:14.432Z,43.02
2022-08-03T10:33:49.552Z,43.12
2022-08-03T10:34:14.486Z,43.02
2022-08-03T10:35:19.645Z,43.12
2022-08-03T10:36:14.449Z,43.12
2022-08-03T10:37:14.468Z,43.02
2022-08-03T10:38:14.489Z,42.92
2022-08-03T10:39:16.219Z,42.92
2022-08-03T10:40:33.254Z,43.10
2022-08-03T10:41:14.573Z,42.90
2022-08-03T10:42:14.971Z,42.99
2022-08-03T10:43:14.631Z,42.99
2022-08-03T10:44:14.656Z,42.99
2022-08-03T10:45:14.686Z,42.99
2022-08-03T10:46:14.685Z,42.90
2022-08-03T10:47:14.710Z,42.99
2022-08-03T10:48:14.738Z,42.90
2022-08-03T10:49:14.848Z,42.90
2022-08-03T10:50:14.802Z,42.90
2022-08-03T10:51:14.840Z,42.80
2022-08-03T10:52:31.844Z,42.70
2022-08-03T10:53:18.626Z,43.10
2022-08-03T10:54:14.821Z,42.70
2022-08-03T10:55:14.830Z,42.70
2022-08-03T10:56:14.858Z,42.70
2022-08-03T10:57:14.898Z,42.68
2022-08-03T10:58:14.851Z,42.58
2022-08-03T10:59:27.448Z,42.58
2022-08-03T11:00:14.930Z,42.58
2022-08-03T11:01:14.979Z,42.58
2022-08-03T11:02:14.930Z,42.58
2022-08-03T11:03:14.942Z,42.58
2022-08-03T11:04:17.002Z,42.58
2022-08-03T11:05:14.993Z,42.58
2022-08-03T11:06:14.975Z,42.68
2022-08-03T11:07:15.165Z,42.58
2022-08-03T11:08:14.991Z,42.58
2022-08-03T11:09:15.011Z,42.58
2022-08-03T11:10:15.030Z,42.58
2022-08-03T11:11:15.016Z,42.58
2022-08-03T11:12:15.054Z,42.58
2022-08-03T11:13:15.029Z,42.58
2022-08-03T11:14:15.040Z,42.58
2022-08-03T11:15:15.040Z,42.58
2022-08-03T11:16:19.822Z,42.58
2022-08-03T11:17:15.064Z,42.68
2022-08-03T11:18:15.090Z,42.58
2022-08-03T11:19:15.122Z,42.58
2022-08-03T11:20:15.126Z,42.58
2022-08-03T11:21:15.159Z,42.58
2022-08-03T11:22:15.179Z,42.58
2022-08-03T11:23:15.194Z,42.58
2022-08-03T11:24:15.211Z,42.58
2022-08-03T11:25:53.645Z,42.58
2022-08-03T11:26:15.267Z,42.56
2022-08-03T11:27:15.248Z,42.46
2022-08-03T11:28:15.264Z,42.56
2022-08-03T11:29:15.294Z,42.46
2022-08-03T11:30:15.314Z,42.46
2022-08-03T11:31:39.256Z,42.56
2022-08-03T11:32:19.420Z,42.56
2022-08-03T11:33:15.378Z,42.56
2022-08-03T11:34:15.385Z,42.56
2022-08-03T11:35:15.430Z,42.56
2022-08-03T11:36:15.406Z,42.56
2022-08-03T11:37:15.428Z,42.46
2022-08-03T11:38:15.453Z,42.56
2022-08-03T11:39:17.051Z,42.56
2022-08-03T11:40:15.492Z,42.56
2022-08-03T11:41:15.520Z,42.56
2022-08-03T11:42:15.525Z,42.56
2022-08-03T11:43:15.717Z,42.56
2022-08-03T11:44:15.582Z,42.46
2022-08-03T11:45:15.563Z,42.46
2022-08-03T11:46:15.601Z,42.46
2022-08-03T11:47:15.578Z,42.56
2022-08-03T11:48:15.587Z,42.46
2022-08-03T11:49:15.620Z,42.46
2022-08-03T11:50:15.629Z,42.46
2022-08-03T11:51:15.625Z,42.46
2022-08-03T11:52:15.632Z,42.46
2022-08-03T11:53:15.651Z,42.46
2022-08-03T11:54:15.680Z,42.46
2022-08-03T11:55:15.711Z,42.46
2022-08-03T11:56:15.733Z,42.46
2022-08-03T11:57:15.803Z,42.46
2022-08-03T11:59:09.412Z,42.56
2022-08-03T11:59:19.924Z,42.46
2022-08-03T12:00:15.785Z,42.46
2022-08-03T12:01:18.873Z,42.46
2022-08-03T12:02:15.834Z,42.34
2022-08-03T12:03:15.961Z,42.34
2022-08-03T12:04:15.873Z,42.44
2022-08-03T12:05:15.888Z,42.44
2022-08-03T12:06:15.919Z,42.34
2022-08-03T12:08:02.218Z,42.34
2022-08-03T12:08:15.948Z,42.34
2022-08-03T12:09:15.963Z,42.44
2022-08-03T12:10:15.990Z,42.46
2022-08-03T12:11:16.003Z,42.46
2022-08-03T12:12:16.061Z,42.66
2022-08-03T12:14:33.106Z,42.56
2022-08-03T12:14:49.816Z,42.66
2022-08-03T12:15:16.056Z,42.66
2022-08-03T12:16:16.078Z,42.66
2022-08-03T12:17:16.276Z,42.66
2022-08-03T12:18:16.091Z,42.76
2022-08-03T12:19:16.043Z,42.76
2022-08-03T12:20:16.073Z,42.76
2022-08-03T12:21:16.103Z,42.85
2022-08-03T12:22:16.102Z,42.76
2022-08-03T12:23:16.132Z,42.85
2022-08-03T12:24:16.161Z,42.85
2022-08-03T12:25:16.176Z,42.85
2022-08-03T12:26:16.130Z,42.96
2022-08-03T12:27:16.572Z,42.96
2022-08-03T12:28:36.149Z,42.96
2022-08-03T12:29:16.177Z,42.97
2022-08-03T12:30:16.196Z,43.07
2022-08-03T12:31:16.213Z,43.05
2022-08-03T12:32:16.231Z,43.17
2022-08-03T12:33:16.261Z,43.17
2022-08-03T12:34:16.257Z,43.27
2022-08-03T12:35:16.351Z,43.27
2022-08-03T12:36:16.309Z,43.27
2022-08-03T12:37:20.270Z,43.27
2022-08-03T12:38:16.368Z,43.27
2022-08-03T12:39:16.344Z,43.27
2022-08-03T12:40:20.546Z,43.27
2022-08-03T12:41:16.373Z,43.27
2022-08-03T12:42:16.393Z,43.27
2022-08-03T12:43:16.425Z,43.27
2022-08-03T12:44:16.402Z,43.27
2022-08-03T12:45:16.439Z,43.27
2022-08-03T12:46:16.462Z,43.27
2022-08-03T12:47:16.709Z,43.27
2022-08-03T12:48:16.508Z,43.27
2022-08-03T12:49:16.582Z,43.27
2022-08-03T12:50:16.463Z,43.27
2022-08-03T12:51:16.499Z,43.27
2022-08-03T12:52:16.534Z,43.27
2022-08-03T12:53:16.571Z,43.27
2022-08-03T12:54:16.581Z,43.27